x

South Nomad (46036) Wave Buoy

4:00pm - Thu 28th May 2015 All times are UTC.

  • Sig Wave height 6.6ft
  • Peak Period 15s
  • Wind
    18mph, 22mph gusts
  • Sea Temp 55°f
  • Air Temp 53°f
  • Sea Pressure 1026.5mb

More Historic Weather Station data

Upgrade to MSW Pro to gain access to the past 30 days of data for over 8000 Wavebouys and Weather Stations around the globe.

Join Pro

Comparision Forecast

View Surf forecast
   
Thu 05/28 4:00pm 6.5ft 15s 18 22 mph 1026.5mb 55f 53f
3:00pm 6.5ft 12s 18 22 mph 1026.6mb 55f 53f
2:00pm 6ft 11s 16 20 mph 1026.6mb 55f 53f
1:00pm 6.5ft 11s 13 16 mph 1026.4mb 55f 53f
12:00pm 6ft 11s 16 20 mph 1025.9mb 55f 53f
11:00am 6ft 15s 18 22 mph 1026mb 55f 53f
10:00am 6.5ft 12s 16 18 mph 1026.3mb 55f 53f
9:00am 6ft 12s 16 20 mph 1026.3mb 55f 53f
8:00am 6ft 15s 16 22 mph 1026.3mb 55f 53f
7:00am 6ft 12s 18 22 mph 1026.1mb 55f 53f
6:00am 6ft 16s 13 18 mph 1026.5mb 55f 53f
5:00am 6ft 13s 16 20 mph 1026.1mb 55f 53f
3:00am 6.5ft 11s 16 20 mph 1025.8mb 55f 54f
2:00am 6.5ft 12s 16 18 mph 1025.9mb 55f 54f
1:00am 7ft 12s 18 20 mph 1025.8mb 55f 54f
12:00am 7ft 12s 16 18 mph 1026.3mb 55f 55f
Wed 05/27 11:00pm 6.5ft 12s 13 18 mph 1026.7mb 55f 55f
10:00pm 6.5ft 13s 13 16 mph 1026.6mb 55f 55f
9:00pm 7ft 14s 13 18 mph 1026.5mb 55f 54f
8:00pm 7ft 13s 13 16 mph 1026.3mb 55f 54f
7:00pm 7ft 12s 16 18 mph 1026.1mb 55f 53f
6:00pm 6.5ft 14s 16 18 mph 1026mb 55f 53f
5:00pm 6ft 12s 16 18 mph 1026mb 55f 53f
4:00pm 6ft 13s 13 18 mph 1026mb 55f 53f
3:00pm 6.5ft 14s 13 20 mph 1025.7mb 55f 53f
2:00pm 7ft 14s 16 20 mph 1025.5mb 55f 52f
1:00pm 6.5ft 14s 16 20 mph 1025.3mb 55f 53f
12:00pm 6.5ft 11s 13 20 mph 1025.3mb 55f 52f
11:00am 7ft 13s 16 22 mph 1025.4mb 55f 52f
10:00am 7ft 12s 16 18 mph 1025.5mb 55f 52f
9:00am 7ft 12s 16
mph
1025.4mb 55f 53f
8:00am 7ft 10s 16 18 mph 1025.4mb 55f 53f
7:00am 7ft 14s 16 20 mph 1025.2mb 55f 53f
6:00am 6.5ft 11s 16 20 mph 1025.1mb 55f 54f
5:00am 6ft 14s 16 20 mph 1025mb 55f 54f
4:00am 6.5ft 12s 13 18 mph 1024.6mb 55f 54f
3:00am 6ft 14s 13 18 mph 1024.7mb 55f 54f
2:00am 6ft 14s 16 18 mph 1024.5mb 55f 55f
1:00am 6ft 14s 13 18 mph 1024.9mb 55f 54f
12:00am 6ft 14s 13 16 mph 1025.3mb 55f 55f
Tue 05/26 11:00pm 6ft 13s 13 16 mph 1025.7mb 55f 54f
10:00pm 7ft 14s 11 16 mph 1025.7mb 55f 54f
9:00pm 6.5ft 12s 11 16 mph 1025.6mb 55f 54f
8:00pm 6.5ft 16s 13 16 mph 1025.3mb 55f 54f
7:00pm 7ft 15s 16 18 mph 1025.1mb 55f 53f
6:00pm 6.5ft 14s 16 18 mph 1024.9mb 55f 54f
5:00pm 6ft 11s 13 18 mph 1024.6mb 55f 54f
4:00pm 6ft 11s 11 13 mph 1024.6mb 55f 54f
3:00pm 6ft 12s 9 13 mph 1024.2mb 55f 54f
2:00pm 6ft 12s 9 11 mph 1024.2mb 55f 54f
1:00pm 6ft 13s 4 7 mph 1024.1mb 55f 54f
12:00pm 6ft 12s 4
mph
1024mb 55f 54f
11:00am 5ft 14s 2 4 mph 1024.2mb 55f 54f
10:00am 5ft 11s 4 7 mph 1024.4mb 55f 53f
9:00am 5ft 12s 9 11 mph 1024.4mb 55f 53f
8:00am 4.5ft 16s 9 11 mph 1024.3mb 55f 54f
7:00am 5ft 12s 7 9 mph 1024mb 55f 54f
6:00am 4.5ft 16s 4 7 mph 1023.7mb 55f 54f
5:00am 4.5ft 17s 9 11 mph 1023.6mb 55f 54f
4:00am 4.5ft 12s 9 11 mph 1023.3mb 55f 54f
3:00am 4.5ft 17s 11 13 mph 1023.3mb 55f 54f
2:00am 4.5ft 14s 13 16 mph 1023.3mb 55f 54f
1:00am 4.5ft 14s 11 13 mph 1023.4mb 55f 55f
12:00am 4.5ft 14s 11 13 mph 1023.5mb 55f 54f
Mon 05/25 11:00pm 4.5ft 13s 13 16 mph 1023.6mb 55f 54f
10:00pm 4.5ft 18s 11 13 mph 1023.5mb 55f 54f
9:00pm 4.5ft 10s 13 18 mph 1023.3mb 55f 54f
8:00pm 4ft 14s 13 16 mph 1023.1mb 55f 55f
7:00pm 4.5ft 14s 11 13 mph 1022.9mb 55f 54f
6:00pm 4ft 10s 11 13 mph 1022.6mb 55f 54f
5:00pm 4ft 14s 11 13 mph 1022.4mb 55f 54f
4:00pm 4.5ft 10s 11 13 mph 1022.4mb 55f 54f
3:00pm 4ft 10s 11 13 mph 1022mb 55f 54f
2:00pm 4.5ft 10s 11 13 mph 1022mb 55f 54f
1:00pm 4.5ft 10s 9 13 mph 1022mb 55f 54f
12:00pm 4.5ft 11s 11 13 mph 1022.2mb 55f 54f
11:00am 5ft 10s 9 11 mph 1022.5mb 55f 54f
10:00am 4.5ft 10s 11 13 mph 1022.8mb 55f 54f
9:00am 4.5ft 11s 13 16 mph 1023mb 55f 54f
8:00am 4.5ft 10s 9 11 mph 1023.3mb 55f 55f
7:00am 4ft 11s 9 11 mph 1023.5mb 55f 55f
6:00am 4ft 10s 11 13 mph 1023.9mb 56f 55f
5:00am 4ft 11s 7 9 mph 1024.1mb 56f 56f
4:00am 4ft 10s 7 9 mph 1024mb 56f 55f
3:00am 4ft 11s 7 9 mph 1024.3mb 56f 56f
2:00am 4.5ft 10s 7 9 mph 1024.8mb 56f 56f
1:00am 4.5ft 10s 7 9 mph 1025.1mb 56f 56f
12:00am 4.5ft 10s 4 7 mph 1025.6mb 56f 55f
Sun 05/24 11:00pm 4.5ft 10s 4 7 mph 1026.2mb 56f 55f
10:00pm 4.5ft 11s 4 7 mph 1026.8mb 55f 55f
9:00pm 5ft 11s 9
mph
1027mb 55f 54f
8:00pm 5ft 11s 7 11 mph 1027.2mb 55f 54f
7:00pm 4.5ft 11s 9
mph
1027.4mb 54f 54f
6:00pm 4.5ft 11s 7 9 mph 1027.7mb 54f 54f